createdAt,value
2019-03-26T00:00:37.101Z,3.20
2019-03-26T00:03:05.529Z,3.23
2019-03-26T00:05:33.985Z,3.10
2019-03-26T00:08:02.411Z,2.60
2019-03-26T00:10:30.863Z,2.97
2019-03-26T00:12:59.329Z,4.00
2019-03-26T00:15:27.825Z,3.90
2019-03-26T00:17:56.277Z,4.13
2019-03-26T00:20:24.713Z,3.67
2019-03-26T00:22:53.161Z,5.20
2019-03-26T00:25:21.623Z,4.97
2019-03-26T00:27:50.062Z,3.93
2019-03-26T00:30:18.565Z,3.10
2019-03-26T00:32:47.095Z,3.77
2019-03-26T00:35:16.369Z,3.07
2019-03-26T00:37:44.794Z,3.60
2019-03-26T00:54:52.915Z,2.43
2019-03-26T00:57:21.364Z,2.90
2019-03-26T00:59:49.872Z,2.90
2019-03-26T01:02:19.428Z,3.00
2019-03-26T01:04:47.875Z,2.23
2019-03-26T01:07:17.818Z,2.93
2019-03-26T01:09:46.286Z,2.60
2019-03-26T01:12:14.718Z,2.33
2019-03-26T01:14:43.180Z,3.30
2019-03-26T01:17:11.593Z,3.00
2019-03-26T01:19:40.074Z,3.30
2019-03-26T01:22:08.508Z,3.00
2019-03-26T01:24:36.938Z,2.50
2019-03-26T01:27:05.415Z,2.20
2019-03-26T01:29:33.881Z,2.60
2019-03-26T01:32:02.410Z,4.10
2019-03-26T01:34:30.857Z,4.53
2019-03-26T01:36:59.309Z,3.17
2019-03-26T01:39:27.745Z,2.60
2019-03-26T01:41:56.201Z,2.33
2019-03-26T01:44:24.715Z,3.53
2019-03-26T01:46:53.177Z,4.57
2019-03-26T01:49:21.909Z,3.33
2019-03-26T01:51:50.360Z,3.13
2019-03-26T01:54:18.809Z,3.40
2019-03-26T01:56:47.239Z,3.70
2019-03-26T01:59:16.832Z,2.70
2019-03-26T02:01:45.345Z,4.40
2019-03-26T02:04:14.002Z,2.70
2019-03-26T02:06:42.528Z,3.20
2019-03-26T02:09:10.949Z,3.67
2019-03-26T02:11:39.541Z,3.13
2019-03-26T02:14:07.970Z,4.10
2019-03-26T02:16:36.413Z,4.20
2019-03-26T02:19:04.831Z,4.40
2019-03-26T02:21:33.273Z,4.33
2019-03-26T02:24:01.793Z,4.70
2019-03-26T02:26:30.241Z,3.77
2019-03-26T02:28:58.674Z,4.63
2019-03-26T02:31:27.136Z,3.27
2019-03-26T02:33:55.578Z,3.17
2019-03-26T02:36:24.010Z,3.17
2019-03-26T02:38:52.459Z,4.43
2019-03-26T02:41:20.887Z,4.00
2019-03-26T02:43:49.328Z,3.87
2019-03-26T02:46:17.759Z,3.03
2019-03-26T02:48:46.207Z,4.43
2019-03-26T02:51:14.634Z,3.00
2019-03-26T02:53:43.064Z,2.80
2019-03-26T02:56:11.494Z,3.83
2019-03-26T02:58:39.933Z,3.27
2019-03-26T03:01:08.354Z,2.60
2019-03-26T03:03:36.942Z,4.37
2019-03-26T03:06:05.425Z,3.80
2019-03-26T03:08:33.878Z,3.87
2019-03-26T03:11:02.304Z,4.33
2019-03-26T03:13:30.904Z,3.73
2019-03-26T03:15:59.334Z,3.90
2019-03-26T03:18:27.785Z,3.23
2019-03-26T03:20:56.276Z,4.07
2019-03-26T03:23:24.774Z,4.03
2019-03-26T03:25:53.258Z,3.00
2019-03-26T03:28:21.684Z,2.80
2019-03-26T03:30:50.152Z,2.33
2019-03-26T03:33:18.627Z,3.13
2019-03-26T03:35:52.582Z,2.20
2019-03-26T03:38:17.293Z,5.13
2019-03-26T03:40:45.726Z,3.77
2019-03-26T03:43:14.232Z,4.60
2019-03-26T03:45:42.661Z,2.67
2019-03-26T03:48:11.421Z,3.00
2019-03-26T03:50:40.121Z,2.70
2019-03-26T03:53:09.652Z,2.40
2019-03-26T03:55:38.734Z,4.50
2019-03-26T03:58:07.162Z,3.70
2019-03-26T04:00:37.704Z,3.50
2019-03-26T04:03:07.472Z,3.37
2019-03-26T04:05:36.578Z,2.57
2019-03-26T04:08:05.341Z,3.63
2019-03-26T04:10:33.799Z,2.97
2019-03-26T04:13:02.213Z,3.10
2019-03-26T04:15:34.505Z,3.00
2019-03-26T04:18:00.786Z,3.87
2019-03-26T04:20:29.246Z,2.97
2019-03-26T04:22:57.718Z,2.53
2019-03-26T04:25:26.190Z,2.93
2019-03-26T04:27:54.630Z,3.00
2019-03-26T04:30:30.440Z,3.10
2019-03-26T04:32:58.947Z,3.43
2019-03-26T04:35:27.381Z,3.40
2019-03-26T04:37:55.862Z,3.50
2019-03-26T04:40:24.392Z,3.80
2019-03-26T04:42:52.833Z,3.93
2019-03-26T04:45:21.283Z,4.40
2019-03-26T04:47:49.771Z,2.93
2019-03-26T04:50:18.386Z,3.40
2019-03-26T04:52:46.810Z,3.63
2019-03-26T04:55:15.333Z,4.57
2019-03-26T04:57:43.751Z,3.97
2019-03-26T05:00:12.512Z,3.63
2019-03-26T05:02:40.958Z,3.17
2019-03-26T05:05:12.322Z,3.50
2019-03-26T05:07:41.029Z,2.70
2019-03-26T05:10:09.738Z,2.77
2019-03-26T05:12:38.196Z,4.50
2019-03-26T05:15:26.029Z,3.37
2019-03-26T05:17:56.607Z,1.80
2019-03-26T05:20:24.629Z,3.10
2019-03-26T05:22:53.052Z,3.27
2019-03-26T05:25:21.489Z,2.70
2019-03-26T05:27:49.920Z,3.80
2019-03-26T05:30:18.626Z,3.30
2019-03-26T05:32:47.071Z,2.27
2019-03-26T05:35:15.673Z,5.07
2019-03-26T05:37:44.113Z,2.57
2019-03-26T05:40:13.293Z,3.03
2019-03-26T05:42:41.750Z,2.37
2019-03-26T05:45:10.593Z,1.83
2019-03-26T05:47:39.092Z,3.10
2019-03-26T05:50:09.542Z,3.47
2019-03-26T05:52:38.343Z,2.27
2019-03-26T05:55:08.404Z,2.43
2019-03-26T05:57:37.609Z,2.33
2019-03-26T06:00:14.024Z,3.33
2019-03-26T06:02:44.483Z,2.53
2019-03-26T06:05:13.064Z,2.10
2019-03-26T06:07:41.497Z,2.20
2019-03-26T06:10:10.673Z,2.90
2019-03-26T06:12:39.096Z,1.90
2019-03-26T06:15:09.259Z,2.90
2019-03-26T06:17:37.728Z,2.93
2019-03-26T06:20:07.234Z,2.43
2019-03-26T06:22:36.549Z,2.83
2019-03-26T06:25:07.114Z,2.77
2019-03-26T06:27:35.705Z,3.17
2019-03-26T06:30:06.734Z,2.40
2019-03-26T06:32:35.167Z,2.60
2019-03-26T06:35:05.897Z,3.00
2019-03-26T06:37:34.521Z,1.83
2019-03-26T06:40:03.234Z,2.67
2019-03-26T06:42:31.686Z,3.03
2019-03-26T06:45:00.326Z,3.33
2019-03-26T06:47:28.944Z,1.60
2019-03-26T06:49:57.497Z,2.73
2019-03-26T06:52:25.929Z,2.10
2019-03-26T06:54:54.374Z,2.20
2019-03-26T06:57:35.104Z,1.87
2019-03-26T06:59:53.931Z,3.20
2019-03-26T07:02:22.373Z,1.83
2019-03-26T07:04:50.802Z,2.23
2019-03-26T07:07:30.818Z,2.87
2019-03-26T07:09:49.412Z,2.40
2019-03-26T07:12:17.846Z,3.40
2019-03-26T07:15:09.690Z,2.77
2019-03-26T07:17:38.677Z,3.50
2019-03-26T07:20:08.586Z,2.10
2019-03-26T07:22:37.004Z,2.30
2019-03-26T07:25:08.145Z,2.60
2019-03-26T07:27:37.124Z,2.33
2019-03-26T07:30:07.987Z,2.30
2019-03-26T07:32:36.438Z,2.70
2019-03-26T07:35:06.814Z,2.97
2019-03-26T07:37:45.107Z,3.53
2019-03-26T07:40:07.345Z,3.17
2019-03-26T07:42:35.765Z,1.70
2019-03-26T07:45:06.232Z,3.00
2019-03-26T07:47:34.736Z,2.87
2019-03-26T07:50:03.845Z,2.80
2019-03-26T07:52:32.272Z,2.23
2019-03-26T07:55:00.712Z,1.80
2019-03-26T07:57:29.142Z,4.43
2019-03-26T07:59:59.144Z,2.30
2019-03-26T08:02:27.615Z,2.07
2019-03-26T08:04:56.110Z,3.07
2019-03-26T08:07:24.670Z,2.53
2019-03-26T08:09:53.102Z,2.23
2019-03-26T08:12:21.533Z,1.87
2019-03-26T08:14:49.966Z,3.23
2019-03-26T08:17:18.516Z,2.87
2019-03-26T08:19:46.990Z,2.40
2019-03-26T08:22:15.446Z,1.77
2019-03-26T08:24:43.888Z,1.90
2019-03-26T08:27:12.677Z,3.30
2019-03-26T08:29:41.098Z,3.03
2019-03-26T08:32:09.537Z,2.50
2019-03-26T08:34:38.157Z,2.00
2019-03-26T08:37:06.646Z,2.30
2019-03-26T08:39:35.128Z,3.27
2019-03-26T08:42:03.601Z,2.30
2019-03-26T08:44:32.047Z,3.00
2019-03-26T08:47:00.465Z,3.03
2019-03-26T08:49:30.896Z,2.70
2019-03-26T08:51:59.049Z,2.37
2019-03-26T08:54:27.487Z,2.03
2019-03-26T08:56:56.076Z,2.90
2019-03-26T08:59:24.501Z,1.63
2019-03-26T09:01:52.930Z,2.20
2019-03-26T09:04:21.373Z,1.50
2019-03-26T09:06:49.784Z,2.47
2019-03-26T09:09:18.232Z,2.57
2019-03-26T09:11:46.679Z,1.17
2019-03-26T09:14:15.093Z,1.57
2019-03-26T09:16:43.577Z,1.90
2019-03-26T09:19:12.006Z,1.73
2019-03-26T09:21:40.446Z,1.30
2019-03-26T09:24:08.882Z,1.43
2019-03-26T09:26:37.308Z,2.33
2019-03-26T09:29:05.739Z,1.73
2019-03-26T09:31:34.182Z,1.30
2019-03-26T09:34:02.604Z,1.37
2019-03-26T09:36:31.052Z,1.60
2019-03-26T09:38:59.482Z,2.40
2019-03-26T09:41:27.922Z,1.70
2019-03-26T09:43:56.358Z,2.33
2019-03-26T09:46:25.067Z,1.17
2019-03-26T09:48:55.575Z,1.60
2019-03-26T09:51:24.017Z,1.87
2019-03-26T09:53:52.505Z,1.60
2019-03-26T09:56:28.498Z,1.80
2019-03-26T09:58:51.095Z,1.50
2019-03-26T10:01:19.539Z,1.67
2019-03-26T10:03:47.953Z,1.80
2019-03-26T10:06:23.441Z,2.27
2019-03-26T10:08:52.418Z,1.80
2019-03-26T10:11:16.887Z,1.23
2019-03-26T10:13:45.319Z,1.73
2019-03-26T10:16:13.764Z,1.53
2019-03-26T10:18:42.197Z,2.00
2019-03-26T10:21:10.621Z,2.40
2019-03-26T10:23:39.068Z,1.57
2019-03-26T10:26:07.492Z,1.50
2019-03-26T10:28:36.086Z,3.33
2019-03-26T10:31:04.514Z,1.10
2019-03-26T10:33:32.967Z,1.20
2019-03-26T10:36:01.380Z,1.63
2019-03-26T10:38:29.841Z,1.90
2019-03-26T10:40:58.268Z,2.60
2019-03-26T10:43:26.788Z,1.63
2019-03-26T10:45:55.270Z,1.50
2019-03-26T10:48:23.706Z,2.03
2019-03-26T10:50:52.129Z,2.30
2019-03-26T10:53:20.642Z,1.70
2019-03-26T10:55:49.065Z,2.10
2019-03-26T10:58:17.496Z,1.47
2019-03-26T11:00:45.929Z,2.00
2019-03-26T11:03:14.369Z,1.73
2019-03-26T11:05:42.805Z,1.70
2019-03-26T11:08:11.237Z,1.90
2019-03-26T11:10:39.674Z,2.07
2019-03-26T11:13:08.125Z,1.40
2019-03-26T11:15:36.565Z,1.90
2019-03-26T11:18:05.282Z,1.70
2019-03-26T11:20:33.720Z,1.27
2019-03-26T11:23:14.452Z,1.70
2019-03-26T11:25:42.873Z,1.23
2019-03-26T11:28:11.305Z,1.20
2019-03-26T11:30:40.009Z,1.77
2019-03-26T11:33:08.447Z,1.70
2019-03-26T11:35:36.998Z,1.90
2019-03-26T11:38:05.562Z,1.17
2019-03-26T11:40:33.995Z,1.60
2019-03-26T11:43:02.429Z,1.27
2019-03-26T11:45:30.863Z,1.10
2019-03-26T11:47:59.359Z,1.50
2019-03-26T11:50:27.772Z,1.07
2019-03-26T11:52:56.232Z,1.50
2019-03-26T11:55:24.653Z,1.23
2019-03-26T11:57:53.105Z,1.60
2019-03-26T12:00:29.831Z,1.10
2019-03-26T12:02:58.262Z,2.30
2019-03-26T12:05:26.753Z,1.43
2019-03-26T12:07:55.218Z,1.57
2019-03-26T12:10:23.661Z,2.03
2019-03-26T12:12:52.081Z,1.97
2019-03-26T12:15:20.514Z,2.17
2019-03-26T12:17:48.976Z,1.90
2019-03-26T12:20:17.406Z,1.50
2019-03-26T12:22:45.851Z,1.80
2019-03-26T12:25:14.668Z,1.07
2019-03-26T12:27:43.113Z,1.00
2019-03-26T12:30:12.386Z,1.30
2019-03-26T12:32:41.375Z,1.10
2019-03-26T12:35:11.921Z,0.83
2019-03-26T12:37:40.365Z,1.13
2019-03-26T12:40:09.377Z,0.70
2019-03-26T12:42:39.358Z,0.70
2019-03-26T12:45:08.230Z,2.20
2019-03-26T12:47:36.739Z,1.23
2019-03-26T12:50:07.390Z,2.03
2019-03-26T12:52:35.842Z,1.07
2019-03-26T12:55:05.805Z,2.63
2019-03-26T12:57:34.226Z,1.23
2019-03-26T13:00:03.053Z,1.40
2019-03-26T13:02:31.481Z,1.13
2019-03-26T13:04:59.928Z,1.03
2019-03-26T13:07:28.362Z,1.07
2019-03-26T13:09:56.976Z,1.30
2019-03-26T13:12:25.398Z,1.10
2019-03-26T13:14:53.833Z,1.30
2019-03-26T13:17:22.436Z,1.20
2019-03-26T13:19:50.857Z,1.10
2019-03-26T13:22:19.293Z,1.13
2019-03-26T13:24:47.748Z,0.80
2019-03-26T13:27:16.183Z,1.23
2019-03-26T13:29:44.620Z,1.50
2019-03-26T13:32:13.273Z,1.20
2019-03-26T13:34:41.872Z,1.30
2019-03-26T13:37:10.294Z,0.83
2019-03-26T13:39:38.766Z,1.47
2019-03-26T13:42:07.182Z,1.13
2019-03-26T13:44:35.614Z,1.60
2019-03-26T13:47:04.110Z,1.23
2019-03-26T13:49:32.564Z,1.50
2019-03-26T13:52:01.138Z,1.30
2019-03-26T13:54:29.578Z,1.20
2019-03-26T13:56:58.201Z,1.83
2019-03-26T13:59:26.625Z,1.77
2019-03-26T14:01:55.057Z,1.03
2019-03-26T14:04:23.472Z,2.10
2019-03-26T14:06:52.732Z,1.50
2019-03-26T14:09:21.324Z,1.60
2019-03-26T14:11:49.758Z,1.70
2019-03-26T14:14:18.229Z,1.40
2019-03-26T14:16:46.666Z,1.90
2019-03-26T14:19:15.082Z,1.80
2019-03-26T14:21:43.593Z,1.87
2019-03-26T14:24:13.460Z,1.80
2019-03-26T14:26:42.236Z,1.37
2019-03-26T14:29:10.648Z,1.43
2019-03-26T14:31:39.088Z,2.07
2019-03-26T14:34:07.884Z,1.27
2019-03-26T14:36:36.327Z,2.60
2019-03-26T14:39:07.825Z,1.67
2019-03-26T14:41:36.261Z,1.47
2019-03-26T14:44:04.854Z,1.70
2019-03-26T14:46:33.357Z,1.80
2019-03-26T14:49:01.779Z,1.90
2019-03-26T14:51:30.390Z,2.00
2019-03-26T14:53:58.826Z,1.30
2019-03-26T14:56:27.432Z,1.53
2019-03-26T14:58:55.859Z,1.37
2019-03-26T15:01:24.290Z,1.87
2019-03-26T15:03:52.705Z,1.03
2019-03-26T15:06:21.128Z,2.97
2019-03-26T15:08:49.554Z,1.67
2019-03-26T15:11:17.987Z,1.00
2019-03-26T15:13:49.315Z,2.10
2019-03-26T15:16:16.572Z,2.20
2019-03-26T15:18:45.006Z,1.97
2019-03-26T15:21:13.456Z,2.03
2019-03-26T15:23:41.942Z,2.07
2019-03-26T15:26:10.462Z,1.60
2019-03-26T15:28:38.885Z,1.23
2019-03-26T15:31:07.366Z,1.60
2019-03-26T15:33:35.788Z,1.40
2019-03-26T15:36:04.227Z,1.70
2019-03-26T15:38:32.649Z,1.10
2019-03-26T15:41:01.072Z,0.93
2019-03-26T15:43:29.531Z,1.50
2019-03-26T15:45:57.949Z,1.20
2019-03-26T15:48:26.381Z,0.80
2019-03-26T15:50:54.797Z,1.10
2019-03-26T15:53:23.229Z,0.90
2019-03-26T15:55:51.650Z,0.60
2019-03-26T15:58:20.094Z,0.63
2019-03-26T16:00:48.601Z,0.73
2019-03-26T16:03:17.084Z,0.60
2019-03-26T16:05:45.512Z,0.77
2019-03-26T16:08:13.981Z,0.73
2019-03-26T16:10:42.399Z,0.83
2019-03-26T16:13:10.843Z,0.60
2019-03-26T16:15:44.761Z,0.80
2019-03-26T16:18:10.825Z,0.60
2019-03-26T16:20:39.254Z,0.60
2019-03-26T16:23:07.698Z,0.63
2019-03-26T16:25:36.388Z,0.73
2019-03-26T16:28:04.823Z,0.50
2019-03-26T16:30:34.620Z,1.10
2019-03-26T16:33:03.190Z,0.53
2019-03-26T16:35:31.640Z,1.03
2019-03-26T16:38:00.099Z,1.00
2019-03-26T16:40:28.513Z,0.93
2019-03-26T16:42:57.025Z,1.20
2019-03-26T16:45:25.556Z,0.80
2019-03-26T16:47:54.057Z,0.70
2019-03-26T16:50:22.479Z,0.80
2019-03-26T16:52:50.937Z,1.07
2019-03-26T16:55:19.413Z,1.00
2019-03-26T16:57:47.869Z,1.20
2019-03-26T17:00:19.386Z,1.27
2019-03-26T17:02:47.814Z,1.30
2019-03-26T17:05:19.325Z,1.17
2019-03-26T17:07:47.746Z,1.13
2019-03-26T17:10:16.345Z,1.20
2019-03-26T17:12:44.764Z,1.40
2019-03-26T17:15:13.634Z,1.20
2019-03-26T17:17:42.049Z,1.93
2019-03-26T17:20:10.755Z,2.03
2019-03-26T17:22:40.127Z,2.13
2019-03-26T17:25:09.768Z,1.80
2019-03-26T17:27:38.201Z,2.37
2019-03-26T17:30:07.038Z,3.13
2019-03-26T17:32:37.633Z,2.30
2019-03-26T17:35:07.037Z,2.30
2019-03-26T17:37:35.531Z,2.50
2019-03-26T17:40:05.708Z,2.67
2019-03-26T17:42:34.148Z,2.90
2019-03-26T17:45:02.775Z,2.50
2019-03-26T17:47:31.291Z,2.93
2019-03-26T17:49:59.740Z,2.20
2019-03-26T17:52:28.207Z,1.53
2019-03-26T17:54:56.742Z,2.10
2019-03-26T17:57:25.294Z,2.00
2019-03-26T17:59:53.889Z,2.50
2019-03-26T18:02:22.349Z,1.70
2019-03-26T18:04:52.998Z,2.47
2019-03-26T18:07:21.495Z,2.00
2019-03-26T18:09:53.176Z,1.40
2019-03-26T18:12:30.898Z,1.80
2019-03-26T18:14:53.443Z,1.90
2019-03-26T18:17:22.165Z,2.27
2019-03-26T18:19:50.693Z,2.27
2019-03-26T18:22:19.188Z,2.37
2019-03-26T18:24:47.690Z,1.97
2019-03-26T18:27:16.233Z,1.60
2019-03-26T18:29:45.535Z,1.90
2019-03-26T18:32:13.960Z,1.90
2019-03-26T18:34:42.380Z,3.47
2019-03-26T18:37:10.839Z,2.20
2019-03-26T18:39:39.272Z,2.20
2019-03-26T18:42:07.699Z,2.30
2019-03-26T18:44:36.138Z,2.87
2019-03-26T18:47:04.559Z,2.53
2019-03-26T18:49:32.998Z,3.13
2019-03-26T18:52:01.429Z,3.37
2019-03-26T18:54:29.869Z,3.37
2019-03-26T18:56:58.344Z,3.47
2019-03-26T18:59:26.848Z,2.83
2019-03-26T19:01:55.303Z,3.60
2019-03-26T19:04:23.734Z,4.20
2019-03-26T19:06:52.161Z,2.83
2019-03-26T19:09:20.592Z,2.90
2019-03-26T19:11:49.074Z,3.67
2019-03-26T19:14:17.549Z,3.60
2019-03-26T19:16:46.009Z,3.17
2019-03-26T19:19:14.473Z,5.10
2019-03-26T19:21:43.000Z,3.87
2019-03-26T19:24:11.413Z,3.30
2019-03-26T19:26:39.926Z,4.80
2019-03-26T19:29:08.386Z,4.97
2019-03-26T19:31:36.851Z,4.90
2019-03-26T19:34:05.283Z,4.77
2019-03-26T19:36:33.776Z,4.57
2019-03-26T19:39:02.238Z,4.97
2019-03-26T19:41:30.777Z,4.97
2019-03-26T19:43:59.202Z,4.33
2019-03-26T19:46:27.691Z,5.63
2019-03-26T19:48:56.130Z,4.40
2019-03-26T19:51:24.572Z,5.60
2019-03-26T19:53:53.031Z,6.20
2019-03-26T19:56:21.571Z,4.70
2019-03-26T19:59:09.386Z,5.87
2019-03-26T20:01:37.890Z,4.43
2019-03-26T20:04:06.397Z,5.00
2019-03-26T20:06:34.868Z,4.07
2019-03-26T20:09:04.515Z,4.80
2019-03-26T20:11:32.961Z,5.13
2019-03-26T20:14:01.419Z,5.50
2019-03-26T20:16:41.331Z,5.00
2019-03-26T20:19:00.154Z,4.30
2019-03-26T20:21:29.735Z,4.23
2019-03-26T20:23:58.180Z,5.50
2019-03-26T20:26:26.642Z,4.27
2019-03-26T20:28:55.069Z,4.37
2019-03-26T20:31:25.044Z,4.87
2019-03-26T20:33:53.474Z,4.20
2019-03-26T20:36:21.993Z,5.23
2019-03-26T20:38:54.108Z,5.17
2019-03-26T20:41:22.528Z,4.40
2019-03-26T20:43:50.973Z,5.57
2019-03-26T20:46:19.473Z,4.13
2019-03-26T20:48:48.099Z,5.10
2019-03-26T20:51:16.994Z,5.20
2019-03-26T20:53:46.752Z,5.00
2019-03-26T20:56:15.187Z,6.07
2019-03-26T20:58:44.329Z,4.50
2019-03-26T21:01:12.748Z,3.90
2019-03-26T21:03:41.189Z,4.90
2019-03-26T21:06:09.639Z,5.83
2019-03-26T21:08:38.067Z,5.10
2019-03-26T21:11:06.515Z,7.63
2019-03-26T21:13:35.045Z,5.27
2019-03-26T21:16:03.495Z,4.50
2019-03-26T21:18:32.032Z,4.83
2019-03-26T21:21:00.483Z,5.40
2019-03-26T21:23:29.082Z,5.50
2019-03-26T21:25:57.569Z,5.90
2019-03-26T21:28:26.010Z,5.53
2019-03-26T21:30:54.435Z,6.67
2019-03-26T21:33:22.876Z,5.63
2019-03-26T21:35:52.709Z,6.53
2019-03-26T21:38:21.167Z,5.60
2019-03-26T21:40:49.601Z,4.90
2019-03-26T21:43:18.072Z,5.30
2019-03-26T21:45:46.504Z,5.80
2019-03-26T21:48:14.988Z,5.57
2019-03-26T21:50:44.552Z,4.60
2019-03-26T21:53:13.029Z,4.67
2019-03-26T21:55:41.513Z,5.27
2019-03-26T21:58:09.949Z,3.87
2019-03-26T22:00:38.573Z,4.23
2019-03-26T22:03:07.554Z,6.30
2019-03-26T22:05:36.196Z,5.20
2019-03-26T22:08:04.635Z,4.90
2019-03-26T22:10:33.089Z,4.13
2019-03-26T22:13:01.589Z,4.83
2019-03-26T22:15:30.049Z,3.60
2019-03-26T22:17:58.469Z,4.77
2019-03-26T22:20:29.224Z,5.47
2019-03-26T22:22:57.657Z,4.50
2019-03-26T22:25:26.153Z,5.13
2019-03-26T22:27:54.602Z,4.27
2019-03-26T22:30:23.513Z,4.03
2019-03-26T22:32:51.943Z,4.40
2019-03-26T22:35:20.565Z,4.97
2019-03-26T22:37:48.999Z,4.60
2019-03-26T22:40:17.611Z,4.43
2019-03-26T22:42:46.069Z,4.70
2019-03-26T22:45:15.869Z,4.07
2019-03-26T22:47:44.309Z,4.17
2019-03-26T22:50:13.840Z,4.40
2019-03-26T22:52:42.334Z,4.50
2019-03-26T22:55:11.521Z,4.40
2019-03-26T22:57:40.125Z,3.40
2019-03-26T23:00:11.720Z,3.97
2019-03-26T23:02:40.409Z,4.70
2019-03-26T23:05:10.201Z,3.70
2019-03-26T23:07:38.758Z,3.90
2019-03-26T23:10:08.221Z,4.37
2019-03-26T23:12:36.667Z,4.00
2019-03-26T23:15:10.705Z,4.87
2019-03-26T23:17:39.134Z,3.93
2019-03-26T23:20:07.602Z,3.40
2019-03-26T23:22:36.031Z,3.10
2019-03-26T23:25:06.199Z,4.00
2019-03-26T23:27:34.621Z,3.30
2019-03-26T23:30:05.415Z,5.20
2019-03-26T23:32:33.837Z,3.93
2019-03-26T23:35:02.294Z,3.30
2019-03-26T23:37:30.722Z,3.93
2019-03-26T23:39:59.854Z,3.50
2019-03-26T23:42:28.334Z,4.53
2019-03-26T23:44:58.555Z,3.80
2019-03-26T23:47:27.030Z,3.63
2019-03-26T23:49:55.628Z,4.40
2019-03-26T23:52:24.072Z,3.57
2019-03-26T23:54:53.748Z,5.07
2019-03-26T23:57:22.282Z,2.80
2019-03-26T23:59:50.881Z,3.33
